sensor_id;sensor_type;location;lat;lon;timestamp;P1;durP1;ratioP1;P2;durP2;ratioP2
62149;SDS011;48134;53.586;10.610;2023-05-07T00:01:08;17.05;;;10.73;;
62149;SDS011;48134;53.586;10.610;2023-05-07T00:03:42;20.17;;;11.20;;
62149;SDS011;48134;53.586;10.610;2023-05-07T00:06:15;19.20;;;11.10;;
62149;SDS011;48134;53.586;10.610;2023-05-07T00:08:43;17.42;;;10.63;;
62149;SDS011;48134;53.586;10.610;2023-05-07T00:11:11;17.73;;;11.00;;
62149;SDS011;48134;53.586;10.610;2023-05-07T00:13:39;18.25;;;10.93;;
62149;SDS011;48134;53.586;10.610;2023-05-07T00:16:06;18.42;;;11.07;;
62149;SDS011;48134;53.586;10.610;2023-05-07T00:18:35;16.90;;;10.63;;
62149;SDS011;48134;53.586;10.610;2023-05-07T00:21:08;17.20;;;10.65;;
62149;SDS011;48134;53.586;10.610;2023-05-07T00:23:41;18.80;;;10.93;;
62149;SDS011;48134;53.586;10.610;2023-05-07T00:26:09;18.42;;;10.93;;
62149;SDS011;48134;53.586;10.610;2023-05-07T00:28:37;18.10;;;10.80;;
62149;SDS011;48134;53.586;10.610;2023-05-07T00:31:09;18.80;;;10.70;;
62149;SDS011;48134;53.586;10.610;2023-05-07T00:33:43;18.35;;;10.75;;
62149;SDS011;48134;53.586;10.610;2023-05-07T00:36:16;18.42;;;10.68;;
62149;SDS011;48134;53.586;10.610;2023-05-07T00:38:44;16.92;;;10.32;;
62149;SDS011;48134;53.586;10.610;2023-05-07T00:41:17;14.77;;;9.23;;
62149;SDS011;48134;53.586;10.610;2023-05-07T00:43:45;15.32;;;9.27;;
62149;SDS011;48134;53.586;10.610;2023-05-07T00:46:13;16.35;;;9.43;;
62149;SDS011;48134;53.586;10.610;2023-05-07T00:48:41;17.02;;;9.70;;
62149;SDS011;48134;53.586;10.610;2023-05-07T00:51:10;15.23;;;9.25;;
62149;SDS011;48134;53.586;10.610;2023-05-07T00:53:43;17.63;;;9.65;;
62149;SDS011;48134;53.586;10.610;2023-05-07T00:56:16;17.60;;;10.35;;
62149;SDS011;48134;53.586;10.610;2023-05-07T00:58:44;16.95;;;10.18;;
62149;SDS011;48134;53.586;10.610;2023-05-07T01:01:12;17.55;;;10.18;;
62149;SDS011;48134;53.586;10.610;2023-05-07T01:03:42;16.70;;;9.90;;
62149;SDS011;48134;53.586;10.610;2023-05-07T01:06:11;14.70;;;9.50;;
62149;SDS011;48134;53.586;10.610;2023-05-07T01:08:44;15.40;;;10.05;;
62149;SDS011;48134;53.586;10.610;2023-05-07T01:11:13;16.90;;;10.40;;
62149;SDS011;48134;53.586;10.610;2023-05-07T01:13:46;15.57;;;9.57;;
62149;SDS011;48134;53.586;10.610;2023-05-07T01:16:14;16.90;;;9.88;;
62149;SDS011;48134;53.586;10.610;2023-05-07T01:18:46;15.38;;;9.73;;
62149;SDS011;48134;53.586;10.610;2023-05-07T01:21:22;18.03;;;10.67;;
62149;SDS011;48134;53.586;10.610;2023-05-07T01:23:59;18.83;;;11.50;;
62149;SDS011;48134;53.586;10.610;2023-05-07T01:26:32;17.10;;;10.93;;
62149;SDS011;48134;53.586;10.610;2023-05-07T01:29:05;18.67;;;10.63;;
62149;SDS011;48134;53.586;10.610;2023-05-07T01:31:34;17.15;;;10.60;;
62149;SDS011;48134;53.586;10.610;2023-05-07T01:34:02;17.00;;;9.98;;
62149;SDS011;48134;53.586;10.610;2023-05-07T01:36:32;15.07;;;9.77;;
62149;SDS011;48134;53.586;10.610;2023-05-07T01:39:01;17.83;;;10.90;;
62149;SDS011;48134;53.586;10.610;2023-05-07T01:41:29;16.38;;;10.38;;
62149;SDS011;48134;53.586;10.610;2023-05-07T01:43:57;18.52;;;10.95;;
62149;SDS011;48134;53.586;10.610;2023-05-07T01:46:26;16.42;;;10.70;;
62149;SDS011;48134;53.586;10.610;2023-05-07T01:48:59;16.35;;;10.73;;
62149;SDS011;48134;53.586;10.610;2023-05-07T01:51:27;17.40;;;10.43;;
62149;SDS011;48134;53.586;10.610;2023-05-07T01:53:55;17.45;;;10.07;;
62149;SDS011;48134;53.586;10.610;2023-05-07T01:56:24;16.73;;;10.23;;
62149;SDS011;48134;53.586;10.610;2023-05-07T01:58:57;17.48;;;10.07;;
62149;SDS011;48134;53.586;10.610;2023-05-07T02:01:25;15.02;;;9.68;;
62149;SDS011;48134;53.586;10.610;2023-05-07T02:03:53;16.10;;;10.00;;
62149;SDS011;48134;53.586;10.610;2023-05-07T02:06:24;15.98;;;9.85;;
62149;SDS011;48134;53.586;10.610;2023-05-07T02:08:56;15.20;;;9.00;;
62149;SDS011;48134;53.586;10.610;2023-05-07T02:11:30;15.03;;;9.20;;
62149;SDS011;48134;53.586;10.610;2023-05-07T02:13:58;15.15;;;9.23;;
62149;SDS011;48134;53.586;10.610;2023-05-07T02:16:31;13.75;;;8.50;;
62149;SDS011;48134;53.586;10.610;2023-05-07T02:18:59;13.23;;;8.48;;
62149;SDS011;48134;53.586;10.610;2023-05-07T02:21:27;13.88;;;8.98;;
62149;SDS011;48134;53.586;10.610;2023-05-07T02:24:00;14.23;;;8.57;;
62149;SDS011;48134;53.586;10.610;2023-05-07T02:26:28;14.10;;;8.55;;
62149;SDS011;48134;53.586;10.610;2023-05-07T02:28:57;13.87;;;8.43;;
62149;SDS011;48134;53.586;10.610;2023-05-07T02:31:25;13.35;;;8.85;;
62149;SDS011;48134;53.586;10.610;2023-05-07T02:33:52;12.63;;;8.27;;
62149;SDS011;48134;53.586;10.610;2023-05-07T02:36:20;13.55;;;8.13;;
62149;SDS011;48134;53.586;10.610;2023-05-07T02:39:00;11.85;;;7.60;;
62149;SDS011;48134;53.586;10.610;2023-05-07T02:41:34;12.32;;;7.95;;
62149;SDS011;48134;53.586;10.610;2023-05-07T02:44:03;13.65;;;7.97;;
62149;SDS011;48134;53.586;10.610;2023-05-07T02:46:31;12.75;;;7.70;;
62149;SDS011;48134;53.586;10.610;2023-05-07T02:49:08;12.95;;;7.85;;
62149;SDS011;48134;53.586;10.610;2023-05-07T02:51:41;13.23;;;7.55;;
62149;SDS011;48134;53.586;10.610;2023-05-07T02:54:19;13.40;;;7.70;;
62149;SDS011;48134;53.586;10.610;2023-05-07T02:56:47;12.88;;;7.63;;
62149;SDS011;48134;53.586;10.610;2023-05-07T02:59:21;12.85;;;7.53;;
62149;SDS011;48134;53.586;10.610;2023-05-07T03:01:49;12.65;;;7.93;;
62149;SDS011;48134;53.586;10.610;2023-05-07T03:04:17;13.77;;;8.13;;
62149;SDS011;48134;53.586;10.610;2023-05-07T03:06:50;13.70;;;8.00;;
62149;SDS011;48134;53.586;10.610;2023-05-07T03:09:17;13.05;;;8.18;;
62149;SDS011;48134;53.586;10.610;2023-05-07T03:11:45;13.98;;;8.27;;
62149;SDS011;48134;53.586;10.610;2023-05-07T03:14:13;14.30;;;8.60;;
62149;SDS011;48134;53.586;10.610;2023-05-07T03:16:42;13.23;;;8.15;;
62149;SDS011;48134;53.586;10.610;2023-05-07T03:19:15;13.77;;;8.60;;
62149;SDS011;48134;53.586;10.610;2023-05-07T03:21:43;14.05;;;8.88;;
62149;SDS011;48134;53.586;10.610;2023-05-07T03:24:11;13.98;;;8.32;;
62149;SDS011;48134;53.586;10.610;2023-05-07T03:26:39;15.10;;;8.82;;
62149;SDS011;48134;53.586;10.610;2023-05-07T03:29:07;14.73;;;8.75;;
62149;SDS011;48134;53.586;10.610;2023-05-07T03:31:35;13.98;;;8.43;;
62149;SDS011;48134;53.586;10.610;2023-05-07T03:34:04;12.80;;;8.10;;
62149;SDS011;48134;53.586;10.610;2023-05-07T03:36:32;14.27;;;8.70;;
62149;SDS011;48134;53.586;10.610;2023-05-07T03:38:59;12.80;;;8.07;;
62149;SDS011;48134;53.586;10.610;2023-05-07T03:41:37;12.90;;;8.17;;
62149;SDS011;48134;53.586;10.610;2023-05-07T03:44:10;13.00;;;7.97;;
62149;SDS011;48134;53.586;10.610;2023-05-07T03:46:39;13.10;;;7.95;;
62149;SDS011;48134;53.586;10.610;2023-05-07T03:49:10;13.07;;;8.15;;
62149;SDS011;48134;53.586;10.610;2023-05-07T03:51:38;13.00;;;7.82;;
62149;SDS011;48134;53.586;10.610;2023-05-07T03:54:07;13.60;;;7.78;;
62149;SDS011;48134;53.586;10.610;2023-05-07T03:56:36;13.25;;;7.60;;
62149;SDS011;48134;53.586;10.610;2023-05-07T03:59:09;12.80;;;7.13;;
62149;SDS011;48134;53.586;10.610;2023-05-07T04:01:44;11.95;;;7.43;;
62149;SDS011;48134;53.586;10.610;2023-05-07T04:04:21;13.20;;;7.18;;
62149;SDS011;48134;53.586;10.610;2023-05-07T04:06:49;12.98;;;7.50;;
62149;SDS011;48134;53.586;10.610;2023-05-07T04:09:16;12.80;;;7.35;;
62149;SDS011;48134;53.586;10.610;2023-05-07T04:11:46;12.33;;;7.40;;
62149;SDS011;48134;53.586;10.610;2023-05-07T04:14:19;11.70;;;7.20;;
62149;SDS011;48134;53.586;10.610;2023-05-07T04:16:48;12.90;;;7.40;;
62149;SDS011;48134;53.586;10.610;2023-05-07T04:19:22;13.23;;;7.57;;
62149;SDS011;48134;53.586;10.610;2023-05-07T04:21:52;13.52;;;8.10;;
62149;SDS011;48134;53.586;10.610;2023-05-07T04:24:20;12.40;;;7.30;;
62149;SDS011;48134;53.586;10.610;2023-05-07T04:26:48;11.23;;;6.47;;
62149;SDS011;48134;53.586;10.610;2023-05-07T04:29:19;11.40;;;7.20;;
62149;SDS011;48134;53.586;10.610;2023-05-07T04:31:47;13.40;;;7.95;;
62149;SDS011;48134;53.586;10.610;2023-05-07T04:34:20;12.93;;;7.78;;
62149;SDS011;48134;53.586;10.610;2023-05-07T04:36:49;12.38;;;7.35;;
62149;SDS011;48134;53.586;10.610;2023-05-07T04:39:22;13.15;;;7.40;;
62149;SDS011;48134;53.586;10.610;2023-05-07T04:41:55;12.80;;;7.40;;
62149;SDS011;48134;53.586;10.610;2023-05-07T04:44:23;12.77;;;7.35;;
62149;SDS011;48134;53.586;10.610;2023-05-07T04:46:53;11.63;;;6.85;;
62149;SDS011;48134;53.586;10.610;2023-05-07T04:49:21;11.00;;;6.80;;
62149;SDS011;48134;53.586;10.610;2023-05-07T04:51:52;12.18;;;6.65;;
62149;SDS011;48134;53.586;10.610;2023-05-07T04:54:25;12.73;;;7.13;;
62149;SDS011;48134;53.586;10.610;2023-05-07T04:56:58;14.05;;;7.40;;
62149;SDS011;48134;53.586;10.610;2023-05-07T04:59:26;11.95;;;7.03;;
62149;SDS011;48134;53.586;10.610;2023-05-07T05:01:59;11.97;;;7.17;;
62149;SDS011;48134;53.586;10.610;2023-05-07T05:04:33;12.13;;;7.28;;
62149;SDS011;48134;53.586;10.610;2023-05-07T05:07:07;11.33;;;6.93;;
62149;SDS011;48134;53.586;10.610;2023-05-07T05:09:35;11.07;;;6.97;;
62149;SDS011;48134;53.586;10.610;2023-05-07T05:12:09;12.48;;;6.95;;
62149;SDS011;48134;53.586;10.610;2023-05-07T05:14:42;11.68;;;6.63;;
62149;SDS011;48134;53.586;10.610;2023-05-07T05:17:15;11.73;;;7.00;;
62149;SDS011;48134;53.586;10.610;2023-05-07T05:19:43;11.48;;;6.90;;
62149;SDS011;48134;53.586;10.610;2023-05-07T05:22:12;11.63;;;7.50;;
62149;SDS011;48134;53.586;10.610;2023-05-07T05:24:40;11.63;;;6.63;;
62149;SDS011;48134;53.586;10.610;2023-05-07T05:27:12;11.65;;;6.85;;
62149;SDS011;48134;53.586;10.610;2023-05-07T05:29:40;11.82;;;6.90;;
62149;SDS011;48134;53.586;10.610;2023-05-07T05:32:08;10.75;;;6.47;;
62149;SDS011;48134;53.586;10.610;2023-05-07T05:34:41;11.85;;;7.03;;
62149;SDS011;48134;53.586;10.610;2023-05-07T05:37:11;10.83;;;6.47;;
62149;SDS011;48134;53.586;10.610;2023-05-07T05:39:39;10.73;;;6.65;;
62149;SDS011;48134;53.586;10.610;2023-05-07T05:42:09;12.88;;;6.93;;
62149;SDS011;48134;53.586;10.610;2023-05-07T05:44:37;10.60;;;6.40;;
62149;SDS011;48134;53.586;10.610;2023-05-07T05:47:09;11.25;;;6.30;;
62149;SDS011;48134;53.586;10.610;2023-05-07T05:49:37;10.23;;;5.80;;
62149;SDS011;48134;53.586;10.610;2023-05-07T05:52:15;10.82;;;6.80;;
62149;SDS011;48134;53.586;10.610;2023-05-07T05:54:45;11.00;;;6.65;;
62149;SDS011;48134;53.586;10.610;2023-05-07T05:57:13;11.27;;;6.55;;
62149;SDS011;48134;53.586;10.610;2023-05-07T05:59:41;10.40;;;6.22;;
62149;SDS011;48134;53.586;10.610;2023-05-07T06:02:09;11.68;;;6.80;;
62149;SDS011;48134;53.586;10.610;2023-05-07T06:04:37;12.20;;;6.82;;
62149;SDS011;48134;53.586;10.610;2023-05-07T06:07:16;10.77;;;6.57;;
62149;SDS011;48134;53.586;10.610;2023-05-07T06:09:49;12.80;;;6.80;;
62149;SDS011;48134;53.586;10.610;2023-05-07T06:12:22;12.35;;;6.53;;
62149;SDS011;48134;53.586;10.610;2023-05-07T06:14:50;12.23;;;6.50;;
62149;SDS011;48134;53.586;10.610;2023-05-07T06:17:18;10.38;;;5.80;;
62149;SDS011;48134;53.586;10.610;2023-05-07T06:19:46;10.55;;;6.10;;
62149;SDS011;48134;53.586;10.610;2023-05-07T06:22:21;11.25;;;6.45;;
62149;SDS011;48134;53.586;10.610;2023-05-07T06:24:49;11.82;;;6.15;;
62149;SDS011;48134;53.586;10.610;2023-05-07T06:27:16;10.05;;;6.47;;
62149;SDS011;48134;53.586;10.610;2023-05-07T06:29:45;10.20;;;6.25;;
62149;SDS011;48134;53.586;10.610;2023-05-07T06:32:14;10.85;;;6.18;;
62149;SDS011;48134;53.586;10.610;2023-05-07T06:34:49;9.65;;;5.72;;
62149;SDS011;48134;53.586;10.610;2023-05-07T06:37:18;10.23;;;6.07;;
62149;SDS011;48134;53.586;10.610;2023-05-07T06:39:57;9.98;;;6.05;;
62149;SDS011;48134;53.586;10.610;2023-05-07T06:42:32;9.52;;;6.15;;
62149;SDS011;48134;53.586;10.610;2023-05-07T06:45:25;8.82;;;5.82;;
62149;SDS011;48134;53.586;10.610;2023-05-07T06:47:57;10.38;;;6.30;;
62149;SDS011;48134;53.586;10.610;2023-05-07T06:50:28;9.52;;;6.22;;
62149;SDS011;48134;53.586;10.610;2023-05-07T06:52:57;9.32;;;6.22;;
62149;SDS011;48134;53.586;10.610;2023-05-07T06:55:26;11.68;;;6.15;;
62149;SDS011;48134;53.586;10.610;2023-05-07T06:57:55;9.05;;;5.93;;
62149;SDS011;48134;53.586;10.610;2023-05-07T07:00:29;10.60;;;5.88;;
62149;SDS011;48134;53.586;10.610;2023-05-07T07:02:57;10.52;;;5.80;;
62149;SDS011;48134;53.586;10.610;2023-05-07T07:05:27;10.90;;;6.00;;
62149;SDS011;48134;53.586;10.610;2023-05-07T07:08:02;9.25;;;5.88;;
62149;SDS011;48134;53.586;10.610;2023-05-07T07:10:31;8.88;;;5.40;;
62149;SDS011;48134;53.586;10.610;2023-05-07T07:13:04;9.18;;;5.05;;
62149;SDS011;48134;53.586;10.610;2023-05-07T07:15:37;9.48;;;5.18;;
62149;SDS011;48134;53.586;10.610;2023-05-07T07:18:05;8.70;;;5.18;;
62149;SDS011;48134;53.586;10.610;2023-05-07T07:20:38;8.70;;;5.30;;
62149;SDS011;48134;53.586;10.610;2023-05-07T07:23:07;8.93;;;5.00;;
62149;SDS011;48134;53.586;10.610;2023-05-07T07:25:42;9.40;;;5.00;;
62149;SDS011;48134;53.586;10.610;2023-05-07T07:28:10;8.90;;;4.90;;
62149;SDS011;48134;53.586;10.610;2023-05-07T07:30:38;8.80;;;4.90;;
62149;SDS011;48134;53.586;10.610;2023-05-07T07:33:06;10.52;;;4.93;;
62149;SDS011;48134;53.586;10.610;2023-05-07T07:35:36;9.55;;;4.78;;
62149;SDS011;48134;53.586;10.610;2023-05-07T07:38:05;8.98;;;5.18;;
62149;SDS011;48134;53.586;10.610;2023-05-07T07:40:38;8.50;;;5.03;;
62149;SDS011;48134;53.586;10.610;2023-05-07T07:43:13;8.80;;;4.80;;
62149;SDS011;48134;53.586;10.610;2023-05-07T07:45:46;8.32;;;5.20;;
62149;SDS011;48134;53.586;10.610;2023-05-07T07:48:14;8.95;;;5.30;;
62149;SDS011;48134;53.586;10.610;2023-05-07T07:50:42;9.95;;;5.10;;
62149;SDS011;48134;53.586;10.610;2023-05-07T07:53:10;10.45;;;5.70;;
62149;SDS011;48134;53.586;10.610;2023-05-07T07:55:38;9.50;;;5.50;;
62149;SDS011;48134;53.586;10.610;2023-05-07T07:58:07;9.23;;;5.68;;
62149;SDS011;48134;53.586;10.610;2023-05-07T08:00:36;9.18;;;5.53;;
62149;SDS011;48134;53.586;10.610;2023-05-07T08:03:04;9.15;;;5.30;;
62149;SDS011;48134;53.586;10.610;2023-05-07T08:05:39;9.17;;;5.40;;
62149;SDS011;48134;53.586;10.610;2023-05-07T08:08:12;9.85;;;5.60;;
62149;SDS011;48134;53.586;10.610;2023-05-07T08:10:41;9.85;;;5.60;;
62149;SDS011;48134;53.586;10.610;2023-05-07T08:13:17;10.35;;;5.30;;
62149;SDS011;48134;53.586;10.610;2023-05-07T08:15:46;8.50;;;5.22;;
62149;SDS011;48134;53.586;10.610;2023-05-07T08:18:14;10.00;;;5.43;;
62149;SDS011;48134;53.586;10.610;2023-05-07T08:20:47;7.90;;;5.00;;
62149;SDS011;48134;53.586;10.610;2023-05-07T08:23:19;8.57;;;4.97;;
62149;SDS011;48134;53.586;10.610;2023-05-07T08:25:47;8.15;;;4.85;;
62149;SDS011;48134;53.586;10.610;2023-05-07T08:28:20;10.40;;;4.80;;
62149;SDS011;48134;53.586;10.610;2023-05-07T08:30:52;8.82;;;4.53;;
62149;SDS011;48134;53.586;10.610;2023-05-07T08:33:20;9.15;;;4.93;;
62149;SDS011;48134;53.586;10.610;2023-05-07T08:35:48;9.13;;;4.97;;
62149;SDS011;48134;53.586;10.610;2023-05-07T08:38:16;7.38;;;4.60;;
62149;SDS011;48134;53.586;10.610;2023-05-07T08:40:43;8.35;;;4.70;;
62149;SDS011;48134;53.586;10.610;2023-05-07T08:43:17;7.65;;;4.82;;
62149;SDS011;48134;53.586;10.610;2023-05-07T08:45:52;7.73;;;4.77;;
62149;SDS011;48134;53.586;10.610;2023-05-07T08:48:25;9.65;;;4.80;;
62149;SDS011;48134;53.586;10.610;2023-05-07T08:51:05;8.73;;;4.97;;
62149;SDS011;48134;53.586;10.610;2023-05-07T08:53:34;7.97;;;4.80;;
62149;SDS011;48134;53.586;10.610;2023-05-07T08:56:02;8.90;;;5.53;;
62149;SDS011;48134;53.586;10.610;2023-05-07T08:58:31;8.75;;;4.80;;
62149;SDS011;48134;53.586;10.610;2023-05-07T09:01:00;9.57;;;4.80;;
62149;SDS011;48134;53.586;10.610;2023-05-07T09:03:34;8.40;;;4.78;;
62149;SDS011;48134;53.586;10.610;2023-05-07T09:06:07;7.68;;;4.68;;
62149;SDS011;48134;53.586;10.610;2023-05-07T09:08:40;8.67;;;4.43;;
62149;SDS011;48134;53.586;10.610;2023-05-07T09:11:08;8.10;;;4.53;;
62149;SDS011;48134;53.586;10.610;2023-05-07T09:13:37;7.80;;;4.45;;
62149;SDS011;48134;53.586;10.610;2023-05-07T09:16:11;7.90;;;4.28;;
62149;SDS011;48134;53.586;10.610;2023-05-07T09:18:45;7.50;;;4.30;;
62149;SDS011;48134;53.586;10.610;2023-05-07T09:21:15;7.93;;;4.75;;
62149;SDS011;48134;53.586;10.610;2023-05-07T09:23:43;8.10;;;5.00;;
62149;SDS011;48134;53.586;10.610;2023-05-07T09:26:12;8.07;;;4.88;;
62149;SDS011;48134;53.586;10.610;2023-05-07T09:28:44;8.00;;;4.80;;
62149;SDS011;48134;53.586;10.610;2023-05-07T09:31:14;7.25;;;4.40;;
62149;SDS011;48134;53.586;10.610;2023-05-07T09:33:48;7.73;;;4.50;;
62149;SDS011;48134;53.586;10.610;2023-05-07T09:36:17;8.00;;;4.10;;
62149;SDS011;48134;53.586;10.610;2023-05-07T09:38:45;8.15;;;4.43;;
62149;SDS011;48134;53.586;10.610;2023-05-07T09:41:18;8.88;;;4.15;;
62149;SDS011;48134;53.586;10.610;2023-05-07T09:44:10;8.02;;;4.40;;
62149;SDS011;48134;53.586;10.610;2023-05-07T09:46:51;7.60;;;4.55;;
62149;SDS011;48134;53.586;10.610;2023-05-07T09:49:33;7.65;;;4.57;;
62149;SDS011;48134;53.586;10.610;2023-05-07T09:52:08;7.47;;;4.45;;
62149;SDS011;48134;53.586;10.610;2023-05-07T09:54:46;6.82;;;4.10;;
62149;SDS011;48134;53.586;10.610;2023-05-07T09:57:16;7.17;;;3.77;;
62149;SDS011;48134;53.586;10.610;2023-05-07T09:59:54;8.20;;;4.13;;
62149;SDS011;48134;53.586;10.610;2023-05-07T10:02:26;9.00;;;4.40;;
62149;SDS011;48134;53.586;10.610;2023-05-07T10:05:00;8.35;;;4.47;;
62149;SDS011;48134;53.586;10.610;2023-05-07T10:07:31;7.80;;;4.23;;
62149;SDS011;48134;53.586;10.610;2023-05-07T10:10:07;8.50;;;3.60;;
62149;SDS011;48134;53.586;10.610;2023-05-07T10:12:42;5.85;;;3.15;;
62149;SDS011;48134;53.586;10.610;2023-05-07T10:15:23;6.60;;;3.67;;
62149;SDS011;48134;53.586;10.610;2023-05-07T10:17:55;6.30;;;3.80;;
62149;SDS011;48134;53.586;10.610;2023-05-07T10:20:28;6.90;;;3.42;;
62149;SDS011;48134;53.586;10.610;2023-05-07T10:23:04;8.13;;;3.78;;
62149;SDS011;48134;53.586;10.610;2023-05-07T10:25:39;9.00;;;3.53;;
62149;SDS011;48134;53.586;10.610;2023-05-07T10:28:21;7.90;;;3.60;;
62149;SDS011;48134;53.586;10.610;2023-05-07T10:30:55;6.35;;;3.75;;
62149;SDS011;48134;53.586;10.610;2023-05-07T10:33:42;7.90;;;3.67;;
62149;SDS011;48134;53.586;10.610;2023-05-07T10:36:11;6.50;;;3.72;;
62149;SDS011;48134;53.586;10.610;2023-05-07T10:38:39;6.28;;;3.40;;
62149;SDS011;48134;53.586;10.610;2023-05-07T10:41:12;5.40;;;3.30;;
62149;SDS011;48134;53.586;10.610;2023-05-07T10:43:47;6.28;;;3.50;;
62149;SDS011;48134;53.586;10.610;2023-05-07T10:46:28;7.17;;;3.63;;
62149;SDS011;48134;53.586;10.610;2023-05-07T10:49:23;6.82;;;3.03;;
62149;SDS011;48134;53.586;10.610;2023-05-07T10:52:13;4.95;;;2.80;;
62149;SDS011;48134;53.586;10.610;2023-05-07T10:55:20;5.63;;;3.22;;
62149;SDS011;48134;53.586;10.610;2023-05-07T11:00:45;6.15;;;3.40;;
62149;SDS011;48134;53.586;10.610;2023-05-07T11:03:25;5.88;;;3.08;;
62149;SDS011;48134;53.586;10.610;2023-05-07T11:06:11;6.15;;;3.30;;
62149;SDS011;48134;53.586;10.610;2023-05-07T11:08:53;6.45;;;2.78;;
62149;SDS011;48134;53.586;10.610;2023-05-07T11:11:44;4.50;;;2.70;;
62149;SDS011;48134;53.586;10.610;2023-05-07T11:17:08;6.90;;;2.92;;
62149;SDS011;48134;53.586;10.610;2023-05-07T11:19:49;4.85;;;2.80;;
62149;SDS011;48134;53.586;10.610;2023-05-07T11:22:39;4.57;;;2.65;;
62149;SDS011;48134;53.586;10.610;2023-05-07T11:25:21;4.70;;;2.80;;
62149;SDS011;48134;53.586;10.610;2023-05-07T11:28:07;4.45;;;2.65;;
62149;SDS011;48134;53.586;10.610;2023-05-07T11:30:51;5.30;;;2.78;;
62149;SDS011;48134;53.586;10.610;2023-05-07T11:33:24;4.93;;;2.72;;
62149;SDS011;48134;53.586;10.610;2023-05-07T11:35:54;5.85;;;2.70;;
62149;SDS011;48134;53.586;10.610;2023-05-07T11:38:34;5.03;;;2.42;;
62149;SDS011;48134;53.586;10.610;2023-05-07T11:41:07;4.65;;;2.70;;
62149;SDS011;48134;53.586;10.610;2023-05-07T11:43:53;5.53;;;2.80;;
62149;SDS011;48134;53.586;10.610;2023-05-07T11:46:27;5.22;;;2.20;;
62149;SDS011;48134;53.586;10.610;2023-05-07T11:49:00;5.93;;;2.30;;
62149;SDS011;48134;53.586;10.610;2023-05-07T11:51:28;5.10;;;2.38;;
62149;SDS011;48134;53.586;10.610;2023-05-07T11:53:58;4.25;;;2.50;;
62149;SDS011;48134;53.586;10.610;2023-05-07T11:56:26;6.97;;;3.00;;
62149;SDS011;48134;53.586;10.610;2023-05-07T11:58:59;5.00;;;2.72;;
62149;SDS011;48134;53.586;10.610;2023-05-07T12:01:31;4.38;;;2.50;;
62149;SDS011;48134;53.586;10.610;2023-05-07T12:04:04;3.70;;;2.42;;
62149;SDS011;48134;53.586;10.610;2023-05-07T12:06:37;4.68;;;2.53;;
62149;SDS011;48134;53.586;10.610;2023-05-07T12:09:07;5.28;;;2.50;;
62149;SDS011;48134;53.586;10.610;2023-05-07T12:11:38;4.90;;;2.50;;
62149;SDS011;48134;53.586;10.610;2023-05-07T12:14:12;3.97;;;2.30;;
62149;SDS011;48134;53.586;10.610;2023-05-07T12:16:40;3.92;;;2.35;;
62149;SDS011;48134;53.586;10.610;2023-05-07T12:19:08;4.40;;;2.30;;
62149;SDS011;48134;53.586;10.610;2023-05-07T12:21:43;4.43;;;2.38;;
62149;SDS011;48134;53.586;10.610;2023-05-07T12:24:12;3.88;;;2.20;;
62149;SDS011;48134;53.586;10.610;2023-05-07T12:26:41;3.70;;;2.20;;
62149;SDS011;48134;53.586;10.610;2023-05-07T12:29:14;4.07;;;2.20;;
62149;SDS011;48134;53.586;10.610;2023-05-07T12:31:42;4.93;;;2.25;;
62149;SDS011;48134;53.586;10.610;2023-05-07T12:34:10;4.05;;;2.30;;
62149;SDS011;48134;53.586;10.610;2023-05-07T12:36:38;5.18;;;2.40;;
62149;SDS011;48134;53.586;10.610;2023-05-07T12:39:06;5.05;;;2.20;;
62149;SDS011;48134;53.586;10.610;2023-05-07T12:44:23;4.75;;;2.20;;
62149;SDS011;48134;53.586;10.610;2023-05-07T12:46:51;5.00;;;2.28;;
62149;SDS011;48134;53.586;10.610;2023-05-07T12:49:19;3.75;;;2.35;;
62149;SDS011;48134;53.586;10.610;2023-05-07T12:51:46;4.95;;;2.50;;
62149;SDS011;48134;53.586;10.610;2023-05-07T12:54:27;4.50;;;2.13;;
62149;SDS011;48134;53.586;10.610;2023-05-07T12:57:00;5.72;;;2.50;;
62149;SDS011;48134;53.586;10.610;2023-05-07T12:59:35;4.93;;;2.58;;
62149;SDS011;48134;53.586;10.610;2023-05-07T13:02:03;6.00;;;2.50;;
62149;SDS011;48134;53.586;10.610;2023-05-07T13:04:31;5.00;;;2.50;;
62149;SDS011;48134;53.586;10.610;2023-05-07T13:06:59;4.13;;;2.55;;
62149;SDS011;48134;53.586;10.610;2023-05-07T13:09:27;4.40;;;2.65;;
62149;SDS011;48134;53.586;10.610;2023-05-07T13:11:55;3.50;;;2.05;;
62149;SDS011;48134;53.586;10.610;2023-05-07T13:14:23;4.82;;;2.25;;
62149;SDS011;48134;53.586;10.610;2023-05-07T13:16:52;4.10;;;2.10;;
62149;SDS011;48134;53.586;10.610;2023-05-07T13:19:20;3.95;;;2.30;;
62149;SDS011;48134;53.586;10.610;2023-05-07T13:21:52;3.13;;;2.10;;
62149;SDS011;48134;53.586;10.610;2023-05-07T13:24:20;4.18;;;2.40;;
62149;SDS011;48134;53.586;10.610;2023-05-07T13:26:53;3.83;;;2.03;;
62149;SDS011;48134;53.586;10.610;2023-05-07T13:29:26;3.10;;;2.00;;
62149;SDS011;48134;53.586;10.610;2023-05-07T13:32:03;4.60;;;2.20;;
62149;SDS011;48134;53.586;10.610;2023-05-07T13:34:31;3.83;;;2.03;;
62149;SDS011;48134;53.586;10.610;2023-05-07T13:37:04;3.95;;;2.15;;
62149;SDS011;48134;53.586;10.610;2023-05-07T13:39:36;4.25;;;2.22;;
62149;SDS011;48134;53.586;10.610;2023-05-07T13:42:04;3.50;;;2.00;;
62149;SDS011;48134;53.586;10.610;2023-05-07T13:44:32;4.40;;;2.00;;
62149;SDS011;48134;53.586;10.610;2023-05-07T13:47:00;3.80;;;2.00;;
62149;SDS011;48134;53.586;10.610;2023-05-07T13:49:30;2.78;;;1.80;;
62149;SDS011;48134;53.586;10.610;2023-05-07T13:52:03;5.00;;;2.20;;
62149;SDS011;48134;53.586;10.610;2023-05-07T13:54:36;3.60;;;2.10;;
62149;SDS011;48134;53.586;10.610;2023-05-07T13:57:03;3.42;;;2.03;;
62149;SDS011;48134;53.586;10.610;2023-05-07T13:59:36;3.72;;;1.98;;
62149;SDS011;48134;53.586;10.610;2023-05-07T14:02:06;2.90;;;1.95;;
62149;SDS011;48134;53.586;10.610;2023-05-07T14:04:41;4.03;;;2.10;;
62149;SDS011;48134;53.586;10.610;2023-05-07T14:07:10;3.72;;;2.20;;
62149;SDS011;48134;53.586;10.610;2023-05-07T14:09:38;3.65;;;2.10;;
62149;SDS011;48134;53.586;10.610;2023-05-07T14:12:06;3.50;;;2.10;;
62149;SDS011;48134;53.586;10.610;2023-05-07T14:14:38;3.80;;;2.00;;
62149;SDS011;48134;53.586;10.610;2023-05-07T14:17:11;3.67;;;2.10;;
62149;SDS011;48134;53.586;10.610;2023-05-07T14:19:39;3.80;;;2.00;;
62149;SDS011;48134;53.586;10.610;2023-05-07T14:22:08;3.92;;;1.88;;
62149;SDS011;48134;53.586;10.610;2023-05-07T14:24:41;3.47;;;1.90;;
62149;SDS011;48134;53.586;10.610;2023-05-07T14:27:09;3.17;;;2.00;;
62149;SDS011;48134;53.586;10.610;2023-05-07T14:29:42;3.95;;;2.00;;
62149;SDS011;48134;53.586;10.610;2023-05-07T14:32:11;3.72;;;2.00;;
62149;SDS011;48134;53.586;10.610;2023-05-07T14:34:45;3.92;;;2.20;;
62149;SDS011;48134;53.586;10.610;2023-05-07T14:37:14;3.40;;;2.10;;
62149;SDS011;48134;53.586;10.610;2023-05-07T14:39:47;4.40;;;2.00;;
62149;SDS011;48134;53.586;10.610;2023-05-07T14:42:15;5.37;;;2.33;;
62149;SDS011;48134;53.586;10.610;2023-05-07T14:44:48;4.73;;;2.10;;
62149;SDS011;48134;53.586;10.610;2023-05-07T14:47:15;4.97;;;2.33;;
62149;SDS011;48134;53.586;10.610;2023-05-07T14:49:43;3.72;;;2.20;;
62149;SDS011;48134;53.586;10.610;2023-05-07T14:52:11;4.25;;;2.30;;
62149;SDS011;48134;53.586;10.610;2023-05-07T14:54:40;3.70;;;2.20;;
62149;SDS011;48134;53.586;10.610;2023-05-07T14:57:13;4.28;;;2.40;;
62149;SDS011;48134;53.586;10.610;2023-05-07T14:59:42;4.47;;;2.20;;